sensor_id;sensor_type;location;lat;lon;timestamp;P1;durP1;ratioP1;P2;durP2;ratioP2
8889;SDS011;4481;43.406;24.454;2023-03-14T00:00:37;13.77;;;9.60;;
8889;SDS011;4481;43.406;24.454;2023-03-14T00:03:03;13.63;;;10.17;;
8889;SDS011;4481;43.406;24.454;2023-03-14T00:05:29;14.07;;;10.10;;
8889;SDS011;4481;43.406;24.454;2023-03-14T00:07:55;15.73;;;10.27;;
8889;SDS011;4481;43.406;24.454;2023-03-14T00:10:21;16.23;;;10.50;;
8889;SDS011;4481;43.406;24.454;2023-03-14T00:12:48;17.80;;;10.97;;
8889;SDS011;4481;43.406;24.454;2023-03-14T00:15:14;16.97;;;11.47;;
8889;SDS011;4481;43.406;24.454;2023-03-14T00:17:42;13.30;;;10.60;;
8889;SDS011;4481;43.406;24.454;2023-03-14T00:20:09;15.57;;;11.40;;
8889;SDS011;4481;43.406;24.454;2023-03-14T00:22:36;14.57;;;11.73;;
8889;SDS011;4481;43.406;24.454;2023-03-14T00:25:03;16.33;;;10.80;;
8889;SDS011;4481;43.406;24.454;2023-03-14T00:27:30;14.03;;;10.80;;
8889;SDS011;4481;43.406;24.454;2023-03-14T00:29:57;14.20;;;10.47;;
8889;SDS011;4481;43.406;24.454;2023-03-14T00:32:23;15.57;;;11.63;;
8889;SDS011;4481;43.406;24.454;2023-03-14T00:34:50;11.73;;;9.97;;
8889;SDS011;4481;43.406;24.454;2023-03-14T00:37:16;12.00;;;10.00;;
8889;SDS011;4481;43.406;24.454;2023-03-14T00:39:42;12.90;;;10.30;;
8889;SDS011;4481;43.406;24.454;2023-03-14T00:42:09;14.30;;;10.57;;
8889;SDS011;4481;43.406;24.454;2023-03-14T00:44:35;13.30;;;9.60;;
8889;SDS011;4481;43.406;24.454;2023-03-14T00:47:01;14.30;;;10.27;;
8889;SDS011;4481;43.406;24.454;2023-03-14T00:49:27;13.40;;;9.87;;
8889;SDS011;4481;43.406;24.454;2023-03-14T00:51:54;11.47;;;9.87;;
8889;SDS011;4481;43.406;24.454;2023-03-14T00:54:20;15.83;;;10.73;;
8889;SDS011;4481;43.406;24.454;2023-03-14T00:56:47;13.40;;;10.20;;
8889;SDS011;4481;43.406;24.454;2023-03-14T00:59:13;13.07;;;9.73;;
8889;SDS011;4481;43.406;24.454;2023-03-14T01:01:41;16.10;;;10.93;;
8889;SDS011;4481;43.406;24.454;2023-03-14T01:04:07;17.33;;;11.27;;
8889;SDS011;4481;43.406;24.454;2023-03-14T01:06:33;14.30;;;10.77;;
8889;SDS011;4481;43.406;24.454;2023-03-14T01:09:00;16.73;;;10.87;;
8889;SDS011;4481;43.406;24.454;2023-03-14T01:11:27;18.17;;;11.57;;
8889;SDS011;4481;43.406;24.454;2023-03-14T01:13:54;15.00;;;11.37;;
8889;SDS011;4481;43.406;24.454;2023-03-14T01:16:22;15.60;;;11.03;;
8889;SDS011;4481;43.406;24.454;2023-03-14T01:18:50;13.47;;;10.60;;
8889;SDS011;4481;43.406;24.454;2023-03-14T01:21:16;17.00;;;10.83;;
8889;SDS011;4481;43.406;24.454;2023-03-14T01:23:44;14.07;;;10.57;;
8889;SDS011;4481;43.406;24.454;2023-03-14T01:26:13;15.27;;;10.43;;
8889;SDS011;4481;43.406;24.454;2023-03-14T01:28:41;15.60;;;10.97;;
8889;SDS011;4481;43.406;24.454;2023-03-14T01:31:08;17.03;;;11.13;;
8889;SDS011;4481;43.406;24.454;2023-03-14T01:33:35;14.37;;;11.07;;
8889;SDS011;4481;43.406;24.454;2023-03-14T01:36:02;14.70;;;10.57;;
8889;SDS011;4481;43.406;24.454;2023-03-14T01:38:29;17.53;;;13.00;;
8889;SDS011;4481;43.406;24.454;2023-03-14T01:40:55;15.27;;;12.83;;
8889;SDS011;4481;43.406;24.454;2023-03-14T01:43:22;15.87;;;12.50;;
8889;SDS011;4481;43.406;24.454;2023-03-14T01:48:58;18.93;;;13.03;;
8889;SDS011;4481;43.406;24.454;2023-03-14T01:51:30;15.77;;;10.40;;
8889;SDS011;4481;43.406;24.454;2023-03-14T01:54:06;15.50;;;10.83;;
8889;SDS011;4481;43.406;24.454;2023-03-14T01:56:35;13.43;;;10.40;;
8889;SDS011;4481;43.406;24.454;2023-03-14T01:59:05;12.87;;;10.93;;
8889;SDS011;4481;43.406;24.454;2023-03-14T02:01:36;12.90;;;9.63;;
8889;SDS011;4481;43.406;24.454;2023-03-14T02:04:04;13.27;;;8.83;;
8889;SDS011;4481;43.406;24.454;2023-03-14T02:06:34;12.77;;;8.80;;
8889;SDS011;4481;43.406;24.454;2023-03-14T02:09:06;12.53;;;8.83;;
8889;SDS011;4481;43.406;24.454;2023-03-14T02:11:33;14.37;;;9.00;;
8889;SDS011;4481;43.406;24.454;2023-03-14T02:13:59;11.80;;;9.00;;
8889;SDS011;4481;43.406;24.454;2023-03-14T02:16:28;23.00;;;10.73;;
8889;SDS011;4481;43.406;24.454;2023-03-14T02:18:54;16.37;;;9.90;;
8889;SDS011;4481;43.406;24.454;2023-03-14T02:21:21;17.73;;;10.87;;
8889;SDS011;4481;43.406;24.454;2023-03-14T02:23:53;19.53;;;10.33;;
8889;SDS011;4481;43.406;24.454;2023-03-14T02:26:28;14.70;;;9.70;;
8889;SDS011;4481;43.406;24.454;2023-03-14T02:29:01;15.17;;;8.57;;
8889;SDS011;4481;43.406;24.454;2023-03-14T02:31:28;16.07;;;9.80;;
8889;SDS011;4481;43.406;24.454;2023-03-14T02:33:54;10.20;;;8.60;;
8889;SDS011;4481;43.406;24.454;2023-03-14T02:36:22;13.80;;;8.43;;
8889;SDS011;4481;43.406;24.454;2023-03-14T02:38:50;10.70;;;7.77;;
8889;SDS011;4481;43.406;24.454;2023-03-14T02:41:21;12.47;;;7.90;;
8889;SDS011;4481;43.406;24.454;2023-03-14T02:43:47;8.73;;;5.83;;
8889;SDS011;4481;43.406;24.454;2023-03-14T02:46:14;10.23;;;6.30;;
8889;SDS011;4481;43.406;24.454;2023-03-14T02:48:44;8.40;;;6.57;;
8889;SDS011;4481;43.406;24.454;2023-03-14T02:51:14;10.67;;;7.60;;
8889;SDS011;4481;43.406;24.454;2023-03-14T02:53:41;9.60;;;8.57;;
8889;SDS011;4481;43.406;24.454;2023-03-14T02:56:08;13.67;;;8.87;;
8889;SDS011;4481;43.406;24.454;2023-03-14T02:58:35;12.00;;;9.20;;
8889;SDS011;4481;43.406;24.454;2023-03-14T03:01:01;12.87;;;9.17;;
8889;SDS011;4481;43.406;24.454;2023-03-14T03:03:29;11.73;;;9.23;;
8889;SDS011;4481;43.406;24.454;2023-03-14T03:05:55;15.33;;;10.37;;
8889;SDS011;4481;43.406;24.454;2023-03-14T03:08:23;12.27;;;9.40;;
8889;SDS011;4481;43.406;24.454;2023-03-14T03:10:51;12.87;;;8.27;;
8889;SDS011;4481;43.406;24.454;2023-03-14T03:13:17;15.37;;;9.03;;
8889;SDS011;4481;43.406;24.454;2023-03-14T03:15:44;12.10;;;9.10;;
8889;SDS011;4481;43.406;24.454;2023-03-14T03:18:10;10.00;;;8.67;;
8889;SDS011;4481;43.406;24.454;2023-03-14T03:20:37;9.93;;;8.00;;
8889;SDS011;4481;43.406;24.454;2023-03-14T03:23:04;9.20;;;7.83;;
8889;SDS011;4481;43.406;24.454;2023-03-14T03:25:30;12.03;;;7.93;;
8889;SDS011;4481;43.406;24.454;2023-03-14T03:27:56;11.53;;;8.93;;
8889;SDS011;4481;43.406;24.454;2023-03-14T03:30:23;11.83;;;8.57;;
8889;SDS011;4481;43.406;24.454;2023-03-14T03:32:49;9.40;;;7.90;;
8889;SDS011;4481;43.406;24.454;2023-03-14T03:35:15;9.60;;;7.50;;
8889;SDS011;4481;43.406;24.454;2023-03-14T03:37:42;10.33;;;7.70;;
8889;SDS011;4481;43.406;24.454;2023-03-14T03:40:09;10.73;;;8.00;;
8889;SDS011;4481;43.406;24.454;2023-03-14T03:42:36;10.27;;;7.70;;
8889;SDS011;4481;43.406;24.454;2023-03-14T03:45:02;12.00;;;7.83;;
8889;SDS011;4481;43.406;24.454;2023-03-14T03:47:29;12.50;;;7.60;;
8889;SDS011;4481;43.406;24.454;2023-03-14T03:49:56;11.67;;;7.93;;
8889;SDS011;4481;43.406;24.454;2023-03-14T03:52:22;12.43;;;8.37;;
8889;SDS011;4481;43.406;24.454;2023-03-14T03:54:49;13.93;;;10.33;;
8889;SDS011;4481;43.406;24.454;2023-03-14T03:57:15;14.40;;;10.33;;
8889;SDS011;4481;43.406;24.454;2023-03-14T03:59:41;10.67;;;8.23;;
8889;SDS011;4481;43.406;24.454;2023-03-14T04:02:07;13.00;;;7.43;;
8889;SDS011;4481;43.406;24.454;2023-03-14T04:04:33;9.23;;;7.83;;
8889;SDS011;4481;43.406;24.454;2023-03-14T04:06:59;11.23;;;8.37;;
8889;SDS011;4481;43.406;24.454;2023-03-14T04:09:25;10.33;;;8.03;;
8889;SDS011;4481;43.406;24.454;2023-03-14T04:11:52;9.07;;;6.80;;
8889;SDS011;4481;43.406;24.454;2023-03-14T04:14:18;11.03;;;8.10;;
8889;SDS011;4481;43.406;24.454;2023-03-14T04:16:44;12.23;;;8.07;;
8889;SDS011;4481;43.406;24.454;2023-03-14T04:19:11;12.90;;;8.40;;
8889;SDS011;4481;43.406;24.454;2023-03-14T04:21:37;11.80;;;8.40;;
8889;SDS011;4481;43.406;24.454;2023-03-14T04:24:05;12.60;;;9.07;;
8889;SDS011;4481;43.406;24.454;2023-03-14T04:26:31;11.90;;;9.07;;
8889;SDS011;4481;43.406;24.454;2023-03-14T04:28:58;10.30;;;8.33;;
8889;SDS011;4481;43.406;24.454;2023-03-14T04:31:24;11.87;;;7.90;;
8889;SDS011;4481;43.406;24.454;2023-03-14T04:33:51;10.63;;;8.00;;
8889;SDS011;4481;43.406;24.454;2023-03-14T04:36:17;11.77;;;7.97;;
8889;SDS011;4481;43.406;24.454;2023-03-14T04:38:43;10.23;;;8.73;;
8889;SDS011;4481;43.406;24.454;2023-03-14T04:41:09;12.03;;;7.50;;
8889;SDS011;4481;43.406;24.454;2023-03-14T04:43:35;8.70;;;7.73;;
8889;SDS011;4481;43.406;24.454;2023-03-14T04:46:02;9.23;;;7.60;;
8889;SDS011;4481;43.406;24.454;2023-03-14T04:48:28;20.33;;;14.03;;
8889;SDS011;4481;43.406;24.454;2023-03-14T04:50:54;20.57;;;12.57;;
8889;SDS011;4481;43.406;24.454;2023-03-14T04:53:21;15.40;;;12.17;;
8889;SDS011;4481;43.406;24.454;2023-03-14T04:55:47;21.47;;;12.10;;
8889;SDS011;4481;43.406;24.454;2023-03-14T04:58:14;15.90;;;10.10;;
8889;SDS011;4481;43.406;24.454;2023-03-14T05:00:40;18.50;;;9.80;;
8889;SDS011;4481;43.406;24.454;2023-03-14T05:03:07;13.77;;;9.27;;
8889;SDS011;4481;43.406;24.454;2023-03-14T05:05:33;12.10;;;9.20;;
8889;SDS011;4481;43.406;24.454;2023-03-14T05:07:59;14.73;;;9.00;;
8889;SDS011;4481;43.406;24.454;2023-03-14T05:10:25;13.60;;;8.83;;
8889;SDS011;4481;43.406;24.454;2023-03-14T05:12:51;11.50;;;8.33;;
8889;SDS011;4481;43.406;24.454;2023-03-14T05:15:17;9.77;;;6.83;;
8889;SDS011;4481;43.406;24.454;2023-03-14T05:17:44;8.33;;;6.57;;
8889;SDS011;4481;43.406;24.454;2023-03-14T05:20:11;8.10;;;6.53;;
8889;SDS011;4481;43.406;24.454;2023-03-14T05:22:38;7.33;;;6.63;;
8889;SDS011;4481;43.406;24.454;2023-03-14T05:25:05;20.47;;;8.40;;
8889;SDS011;4481;43.406;24.454;2023-03-14T05:27:31;12.00;;;7.40;;
8889;SDS011;4481;43.406;24.454;2023-03-14T05:29:58;11.67;;;7.47;;
8889;SDS011;4481;43.406;24.454;2023-03-14T05:32:24;7.00;;;6.10;;
8889;SDS011;4481;43.406;24.454;2023-03-14T05:34:50;11.10;;;6.43;;
8889;SDS011;4481;43.406;24.454;2023-03-14T05:37:17;9.93;;;6.20;;
8889;SDS011;4481;43.406;24.454;2023-03-14T05:39:43;7.40;;;6.27;;
8889;SDS011;4481;43.406;24.454;2023-03-14T05:42:09;14.87;;;7.33;;
8889;SDS011;4481;43.406;24.454;2023-03-14T05:44:36;9.03;;;6.90;;
8889;SDS011;4481;43.406;24.454;2023-03-14T05:47:03;12.43;;;8.13;;
8889;SDS011;4481;43.406;24.454;2023-03-14T05:49:29;11.87;;;7.53;;
8889;SDS011;4481;43.406;24.454;2023-03-14T05:51:56;12.00;;;7.90;;
8889;SDS011;4481;43.406;24.454;2023-03-14T05:54:23;14.27;;;9.70;;
8889;SDS011;4481;43.406;24.454;2023-03-14T05:56:50;10.80;;;8.57;;
8889;SDS011;4481;43.406;24.454;2023-03-14T05:59:16;11.50;;;7.77;;
8889;SDS011;4481;43.406;24.454;2023-03-14T06:01:43;10.17;;;6.70;;
8889;SDS011;4481;43.406;24.454;2023-03-14T06:04:09;7.10;;;6.40;;
8889;SDS011;4481;43.406;24.454;2023-03-14T06:06:36;7.43;;;6.17;;
8889;SDS011;4481;43.406;24.454;2023-03-14T06:09:02;7.93;;;6.50;;
8889;SDS011;4481;43.406;24.454;2023-03-14T06:11:29;11.93;;;8.00;;
8889;SDS011;4481;43.406;24.454;2023-03-14T06:13:55;9.57;;;7.10;;
8889;SDS011;4481;43.406;24.454;2023-03-14T06:16:21;9.47;;;6.80;;
8889;SDS011;4481;43.406;24.454;2023-03-14T06:18:48;9.77;;;6.23;;
8889;SDS011;4481;43.406;24.454;2023-03-14T06:21:15;14.83;;;6.33;;
8889;SDS011;4481;43.406;24.454;2023-03-14T06:23:41;8.77;;;5.60;;
8889;SDS011;4481;43.406;24.454;2023-03-14T06:26:07;11.70;;;6.33;;
8889;SDS011;4481;43.406;24.454;2023-03-14T06:28:34;8.23;;;5.80;;
8889;SDS011;4481;43.406;24.454;2023-03-14T06:31:00;10.57;;;6.00;;
8889;SDS011;4481;43.406;24.454;2023-03-14T06:33:27;7.90;;;5.93;;
8889;SDS011;4481;43.406;24.454;2023-03-14T06:35:53;13.50;;;5.83;;
8889;SDS011;4481;43.406;24.454;2023-03-14T06:38:19;11.37;;;6.47;;
8889;SDS011;4481;43.406;24.454;2023-03-14T06:40:45;7.70;;;6.40;;
8889;SDS011;4481;43.406;24.454;2023-03-14T06:43:12;9.53;;;6.47;;
8889;SDS011;4481;43.406;24.454;2023-03-14T06:45:42;10.10;;;6.77;;
8889;SDS011;4481;43.406;24.454;2023-03-14T06:48:08;9.50;;;7.27;;
8889;SDS011;4481;43.406;24.454;2023-03-14T06:50:35;16.60;;;11.30;;
8889;SDS011;4481;43.406;24.454;2023-03-14T06:53:01;16.37;;;10.80;;
8889;SDS011;4481;43.406;24.454;2023-03-14T06:55:28;17.33;;;10.90;;
8889;SDS011;4481;43.406;24.454;2023-03-14T06:57:54;11.80;;;9.13;;
8889;SDS011;4481;43.406;24.454;2023-03-14T07:00:20;13.57;;;8.90;;
8889;SDS011;4481;43.406;24.454;2023-03-14T07:02:48;12.27;;;7.20;;
8889;SDS011;4481;43.406;24.454;2023-03-14T07:05:14;9.10;;;7.40;;
8889;SDS011;4481;43.406;24.454;2023-03-14T07:07:40;8.43;;;6.37;;
8889;SDS011;4481;43.406;24.454;2023-03-14T07:10:06;9.40;;;5.53;;
8889;SDS011;4481;43.406;24.454;2023-03-14T07:12:34;7.73;;;5.70;;
8889;SDS011;4481;43.406;24.454;2023-03-14T07:15:00;10.37;;;5.73;;
8889;SDS011;4481;43.406;24.454;2023-03-14T07:17:26;8.43;;;6.60;;
8889;SDS011;4481;43.406;24.454;2023-03-14T07:19:53;8.00;;;6.00;;
8889;SDS011;4481;43.406;24.454;2023-03-14T07:22:19;6.90;;;5.90;;
8889;SDS011;4481;43.406;24.454;2023-03-14T07:24:45;6.83;;;5.87;;
8889;SDS011;4481;43.406;24.454;2023-03-14T07:27:12;6.73;;;5.43;;
8889;SDS011;4481;43.406;24.454;2023-03-14T07:29:43;8.67;;;5.70;;
8889;SDS011;4481;43.406;24.454;2023-03-14T07:32:09;7.53;;;6.40;;
8889;SDS011;4481;43.406;24.454;2023-03-14T07:34:39;8.43;;;6.13;;
8889;SDS011;4481;43.406;24.454;2023-03-14T07:37:06;8.73;;;6.83;;
8889;SDS011;4481;43.406;24.454;2023-03-14T07:39:32;11.00;;;7.43;;
8889;SDS011;4481;43.406;24.454;2023-03-14T07:41:59;8.43;;;6.90;;
8889;SDS011;4481;43.406;24.454;2023-03-14T07:44:25;8.73;;;6.90;;
8889;SDS011;4481;43.406;24.454;2023-03-14T07:46:52;8.90;;;6.90;;
8889;SDS011;4481;43.406;24.454;2023-03-14T07:49:19;8.80;;;7.90;;
8889;SDS011;4481;43.406;24.454;2023-03-14T07:51:47;8.20;;;6.73;;
8889;SDS011;4481;43.406;24.454;2023-03-14T07:54:14;11.70;;;6.83;;
8889;SDS011;4481;43.406;24.454;2023-03-14T07:56:40;11.93;;;6.63;;
8889;SDS011;4481;43.406;24.454;2023-03-14T07:59:06;10.80;;;7.20;;
8889;SDS011;4481;43.406;24.454;2023-03-14T08:01:33;8.07;;;6.80;;
8889;SDS011;4481;43.406;24.454;2023-03-14T08:03:59;8.90;;;6.00;;
8889;SDS011;4481;43.406;24.454;2023-03-14T08:06:25;9.60;;;8.47;;
8889;SDS011;4481;43.406;24.454;2023-03-14T08:08:52;9.23;;;6.57;;
8889;SDS011;4481;43.406;24.454;2023-03-14T08:11:19;13.03;;;6.77;;
8889;SDS011;4481;43.406;24.454;2023-03-14T08:13:45;7.20;;;6.20;;
8889;SDS011;4481;43.406;24.454;2023-03-14T08:16:14;8.17;;;5.93;;
8889;SDS011;4481;43.406;24.454;2023-03-14T08:18:41;8.37;;;5.77;;
8889;SDS011;4481;43.406;24.454;2023-03-14T08:21:08;8.73;;;5.83;;
8889;SDS011;4481;43.406;24.454;2023-03-14T08:23:35;6.97;;;6.07;;
8889;SDS011;4481;43.406;24.454;2023-03-14T08:26:01;7.57;;;6.10;;
8889;SDS011;4481;43.406;24.454;2023-03-14T08:28:29;6.50;;;5.70;;
8889;SDS011;4481;43.406;24.454;2023-03-14T08:30:58;7.87;;;6.43;;
8889;SDS011;4481;43.406;24.454;2023-03-14T08:33:25;6.83;;;6.20;;
8889;SDS011;4481;43.406;24.454;2023-03-14T08:35:51;11.90;;;7.10;;
8889;SDS011;4481;43.406;24.454;2023-03-14T08:38:18;9.57;;;6.57;;
8889;SDS011;4481;43.406;24.454;2023-03-14T08:40:45;7.43;;;6.40;;
8889;SDS011;4481;43.406;24.454;2023-03-14T08:43:12;9.40;;;6.90;;
8889;SDS011;4481;43.406;24.454;2023-03-14T08:45:38;9.27;;;7.00;;
8889;SDS011;4481;43.406;24.454;2023-03-14T08:48:05;8.80;;;6.93;;
8889;SDS011;4481;43.406;24.454;2023-03-14T08:50:31;8.80;;;7.20;;
8889;SDS011;4481;43.406;24.454;2023-03-14T08:52:57;8.17;;;6.90;;
8889;SDS011;4481;43.406;24.454;2023-03-14T08:55:25;9.07;;;7.23;;
8889;SDS011;4481;43.406;24.454;2023-03-14T08:57:52;7.07;;;6.30;;
8889;SDS011;4481;43.406;24.454;2023-03-14T09:00:19;6.87;;;5.80;;
8889;SDS011;4481;43.406;24.454;2023-03-14T09:02:46;9.43;;;6.53;;
8889;SDS011;4481;43.406;24.454;2023-03-14T09:05:12;6.67;;;5.50;;
8889;SDS011;4481;43.406;24.454;2023-03-14T09:07:39;6.10;;;5.50;;
8889;SDS011;4481;43.406;24.454;2023-03-14T09:10:08;6.67;;;4.70;;
8889;SDS011;4481;43.406;24.454;2023-03-14T09:12:35;7.13;;;5.20;;
8889;SDS011;4481;43.406;24.454;2023-03-14T09:15:02;4.73;;;4.20;;
8889;SDS011;4481;43.406;24.454;2023-03-14T09:17:28;7.23;;;4.80;;
8889;SDS011;4481;43.406;24.454;2023-03-14T09:19:55;5.57;;;4.70;;
8889;SDS011;4481;43.406;24.454;2023-03-14T09:22:21;5.67;;;4.60;;
8889;SDS011;4481;43.406;24.454;2023-03-14T09:24:48;5.77;;;4.27;;
8889;SDS011;4481;43.406;24.454;2023-03-14T09:27:14;6.60;;;5.10;;
8889;SDS011;4481;43.406;24.454;2023-03-14T09:29:40;5.87;;;4.90;;
8889;SDS011;4481;43.406;24.454;2023-03-14T09:32:06;8.27;;;5.63;;
8889;SDS011;4481;43.406;24.454;2023-03-14T09:34:33;6.17;;;5.50;;
8889;SDS011;4481;43.406;24.454;2023-03-14T09:37:00;7.03;;;5.03;;
8889;SDS011;4481;43.406;24.454;2023-03-14T09:39:26;8.57;;;5.03;;
8889;SDS011;4481;43.406;24.454;2023-03-14T09:41:52;6.73;;;4.97;;
8889;SDS011;4481;43.406;24.454;2023-03-14T09:44:24;6.03;;;4.87;;
8889;SDS011;4481;43.406;24.454;2023-03-14T09:46:54;7.37;;;5.40;;
8889;SDS011;4481;43.406;24.454;2023-03-14T09:49:27;13.90;;;5.20;;
8889;SDS011;4481;43.406;24.454;2023-03-14T09:51:57;9.77;;;5.40;;
8889;SDS011;4481;43.406;24.454;2023-03-14T09:54:31;5.87;;;5.20;;
8889;SDS011;4481;43.406;24.454;2023-03-14T09:57:01;6.87;;;5.50;;
8889;SDS011;4481;43.406;24.454;2023-03-14T09:59:28;6.33;;;5.33;;
8889;SDS011;4481;43.406;24.454;2023-03-14T10:01:55;9.07;;;5.20;;
8889;SDS011;4481;43.406;24.454;2023-03-14T10:04:23;7.40;;;5.27;;
8889;SDS011;4481;43.406;24.454;2023-03-14T10:06:50;6.43;;;5.73;;
8889;SDS011;4481;43.406;24.454;2023-03-14T10:09:18;6.67;;;5.10;;
8889;SDS011;4481;43.406;24.454;2023-03-14T10:11:51;5.83;;;5.23;;
8889;SDS011;4481;43.406;24.454;2023-03-14T10:14:28;8.07;;;5.40;;
8889;SDS011;4481;43.406;24.454;2023-03-14T10:16:59;6.27;;;4.73;;
8889;SDS011;4481;43.406;24.454;2023-03-14T10:19:32;5.70;;;4.70;;
8889;SDS011;4481;43.406;24.454;2023-03-14T10:22:02;12.50;;;4.87;;
8889;SDS011;4481;43.406;24.454;2023-03-14T10:24:30;5.07;;;3.87;;
8889;SDS011;4481;43.406;24.454;2023-03-14T10:26:59;5.43;;;4.27;;
8889;SDS011;4481;43.406;24.454;2023-03-14T10:29:27;4.83;;;4.27;;
8889;SDS011;4481;43.406;24.454;2023-03-14T10:31:56;5.03;;;4.00;;
8889;SDS011;4481;43.406;24.454;2023-03-14T10:34:29;8.17;;;4.47;;
8889;SDS011;4481;43.406;24.454;2023-03-14T10:36:57;5.27;;;4.07;;
8889;SDS011;4481;43.406;24.454;2023-03-14T10:39:32;6.37;;;4.10;;
8889;SDS011;4481;43.406;24.454;2023-03-14T10:42:05;8.60;;;4.10;;
8889;SDS011;4481;43.406;24.454;2023-03-14T10:44:39;4.57;;;4.07;;
8889;SDS011;4481;43.406;24.454;2023-03-14T10:47:12;4.10;;;3.67;;
8889;SDS011;4481;43.406;24.454;2023-03-14T10:49:43;6.37;;;3.67;;
8889;SDS011;4481;43.406;24.454;2023-03-14T10:52:13;6.00;;;3.63;;
8889;SDS011;4481;43.406;24.454;2023-03-14T10:54:46;3.50;;;3.20;;
8889;SDS011;4481;43.406;24.454;2023-03-14T10:57:14;3.97;;;3.57;;
8889;SDS011;4481;43.406;24.454;2023-03-14T10:59:41;4.87;;;3.33;;
8889;SDS011;4481;43.406;24.454;2023-03-14T11:02:13;3.43;;;2.83;;
8889;SDS011;4481;43.406;24.454;2023-03-14T11:04:57;2.73;;;2.53;;
8889;SDS011;4481;43.406;24.454;2023-03-14T11:07:33;2.93;;;2.60;;
8889;SDS011;4481;43.406;24.454;2023-03-14T11:10:08;3.30;;;2.73;;
8889;SDS011;4481;43.406;24.454;2023-03-14T11:12:43;2.90;;;2.60;;
8889;SDS011;4481;43.406;24.454;2023-03-14T11:15:22;2.70;;;2.33;;
8889;SDS011;4481;43.406;24.454;2023-03-14T11:17:57;6.13;;;2.70;;
8889;SDS011;4481;43.406;24.454;2023-03-14T11:20:34;3.40;;;2.57;;
8889;SDS011;4481;43.406;24.454;2023-03-14T11:23:07;2.97;;;2.60;;
8889;SDS011;4481;43.406;24.454;2023-03-14T11:25:38;6.97;;;2.53;;
8889;SDS011;4481;43.406;24.454;2023-03-14T11:28:15;2.30;;;2.10;;
8889;SDS011;4481;43.406;24.454;2023-03-14T11:30:45;3.93;;;2.23;;
8889;SDS011;4481;43.406;24.454;2023-03-14T11:33:17;3.27;;;2.50;;
8889;SDS011;4481;43.406;24.454;2023-03-14T11:35:49;2.50;;;2.23;;
8889;SDS011;4481;43.406;24.454;2023-03-14T11:38:27;2.67;;;2.10;;
8889;SDS011;4481;43.406;24.454;2023-03-14T11:40:58;3.00;;;2.17;;
8889;SDS011;4481;43.406;24.454;2023-03-14T11:43:27;2.70;;;2.13;;
8889;SDS011;4481;43.406;24.454;2023-03-14T11:46:00;2.70;;;2.13;;
8889;SDS011;4481;43.406;24.454;2023-03-14T11:48:34;2.70;;;2.50;;
8889;SDS011;4481;43.406;24.454;2023-03-14T11:51:05;3.80;;;2.40;;
8889;SDS011;4481;43.406;24.454;2023-03-14T11:53:43;2.60;;;2.40;;
8889;SDS011;4481;43.406;24.454;2023-03-14T11:56:18;3.23;;;2.00;;
8889;SDS011;4481;43.406;24.454;2023-03-14T11:58:53;2.57;;;2.37;;
8889;SDS011;4481;43.406;24.454;2023-03-14T12:01:23;2.30;;;2.10;;
8889;SDS011;4481;43.406;24.454;2023-03-14T12:03:58;2.50;;;2.13;;
8889;SDS011;4481;43.406;24.454;2023-03-14T12:06:31;3.27;;;2.10;;
8889;SDS011;4481;43.406;24.454;2023-03-14T12:09:03;6.90;;;2.17;;
8889;SDS011;4481;43.406;24.454;2023-03-14T12:11:32;1.90;;;1.80;;
8889;SDS011;4481;43.406;24.454;2023-03-14T12:14:15;1.80;;;1.47;;
8889;SDS011;4481;43.406;24.454;2023-03-14T12:16:45;2.10;;;1.90;;
8889;SDS011;4481;43.406;24.454;2023-03-14T12:19:14;2.23;;;1.80;;
8889;SDS011;4481;43.406;24.454;2023-03-14T12:21:51;2.63;;;2.27;;
8889;SDS011;4481;43.406;24.454;2023-03-14T12:24:23;2.40;;;1.90;;
8889;SDS011;4481;43.406;24.454;2023-03-14T12:26:53;2.63;;;1.70;;
8889;SDS011;4481;43.406;24.454;2023-03-14T12:29:21;2.13;;;1.90;;
8889;SDS011;4481;43.406;24.454;2023-03-14T12:31:48;2.17;;;1.87;;
8889;SDS011;4481;43.406;24.454;2023-03-14T12:37:01;2.50;;;1.87;;
8889;SDS011;4481;43.406;24.454;2023-03-14T12:39:37;3.10;;;2.37;;
8889;SDS011;4481;43.406;24.454;2023-03-14T12:42:12;2.77;;;1.80;;
8889;SDS011;4481;43.406;24.454;2023-03-14T12:44:46;1.90;;;1.43;;
8889;SDS011;4481;43.406;24.454;2023-03-14T12:50:43;3.33;;;1.80;;
8889;SDS011;4481;43.406;24.454;2023-03-14T12:53:35;6.20;;;2.07;;
8889;SDS011;4481;43.406;24.454;2023-03-14T12:56:19;3.00;;;2.10;;
8889;SDS011;4481;43.406;24.454;2023-03-14T12:58:53;2.07;;;1.70;;
8889;SDS011;4481;43.406;24.454;2023-03-14T13:01:28;3.47;;;2.03;;
8889;SDS011;4481;43.406;24.454;2023-03-14T13:03:55;2.73;;;1.87;;
8889;SDS011;4481;43.406;24.454;2023-03-14T13:12:18;3.07;;;2.13;;
8889;SDS011;4481;43.406;24.454;2023-03-14T13:14:49;5.03;;;3.60;;
8889;SDS011;4481;43.406;24.454;2023-03-14T13:17:22;4.00;;;2.10;;
8889;SDS011;4481;43.406;24.454;2023-03-14T13:19:52;2.83;;;1.93;;
8889;SDS011;4481;43.406;24.454;2023-03-14T13:22:22;3.07;;;1.90;;
8889;SDS011;4481;43.406;24.454;2023-03-14T13:24:57;3.00;;;2.20;;
8889;SDS011;4481;43.406;24.454;2023-03-14T13:27:25;2.73;;;1.90;;
8889;SDS011;4481;43.406;24.454;2023-03-14T13:29:52;6.40;;;2.17;;
8889;SDS011;4481;43.406;24.454;2023-03-14T13:32:19;5.03;;;2.10;;
8889;SDS011;4481;43.406;24.454;2023-03-14T13:34:48;5.80;;;2.23;;
8889;SDS011;4481;43.406;24.454;2023-03-14T13:37:15;6.83;;;2.33;;
8889;SDS011;4481;43.406;24.454;2023-03-14T13:39:42;3.20;;;2.90;;
8889;SDS011;4481;43.406;24.454;2023-03-14T13:42:14;3.27;;;2.30;;
8889;SDS011;4481;43.406;24.454;2023-03-14T13:44:42;3.53;;;2.20;;
8889;SDS011;4481;43.406;24.454;2023-03-14T13:47:10;2.70;;;1.87;;
8889;SDS011;4481;43.406;24.454;2023-03-14T13:49:41;3.47;;;2.23;;
8889;SDS011;4481;43.406;24.454;2023-03-14T13:52:21;3.63;;;1.73;;
8889;SDS011;4481;43.406;24.454;2023-03-14T13:54:52;2.13;;;1.93;;
8889;SDS011;4481;43.406;24.454;2023-03-14T13:57:18;1.53;;;1.40;;
8889;SDS011;4481;43.406;24.454;2023-03-14T13:59:45;2.20;;;1.47;;
8889;SDS011;4481;43.406;24.454;2023-03-14T14:02:24;4.23;;;1.60;;
8889;SDS011;4481;43.406;24.454;2023-03-14T14:04:52;4.90;;;1.60;;
8889;SDS011;4481;43.406;24.454;2023-03-14T14:07:18;2.43;;;1.80;;
8889;SDS011;4481;43.406;24.454;2023-03-14T14:09:45;5.20;;;1.80;;
8889;SDS011;4481;43.406;24.454;2023-03-14T14:12:14;2.07;;;1.90;;
8889;SDS011;4481;43.406;24.454;2023-03-14T14:14:43;3.90;;;2.20;;
8889;SDS011;4481;43.406;24.454;2023-03-14T14:17:12;2.83;;;1.67;;
8889;SDS011;4481;43.406;24.454;2023-03-14T14:19:43;4.90;;;1.80;;
8889;SDS011;4481;43.406;24.454;2023-03-14T14:22:12;4.67;;;1.90;;
8889;SDS011;4481;43.406;24.454;2023-03-14T14:24:38;3.07;;;1.83;;
8889;SDS011;4481;43.406;24.454;2023-03-14T14:27:08;2.17;;;1.60;;
8889;SDS011;4481;43.406;24.454;2023-03-14T14:29:39;2.47;;;1.70;;
8889;SDS011;4481;43.406;24.454;2023-03-14T14:32:10;3.40;;;2.37;;
8889;SDS011;4481;43.406;24.454;2023-03-14T14:34:38;2.50;;;2.20;;
8889;SDS011;4481;43.406;24.454;2023-03-14T14:37:16;3.03;;;1.60;;
8889;SDS011;4481;43.406;24.454;2023-03-14T14:39:45;2.63;;;1.80;;
8889;SDS011;4481;43.406;24.454;2023-03-14T14:42:12;2.20;;;2.00;;
8889;SDS011;4481;43.406;24.454;2023-03-14T14:44:41;6.57;;;2.10;;
8889;SDS011;4481;43.406;24.454;2023-03-14T14:47:12;4.57;;;1.90;;
8889;SDS011;4481;43.406;24.454;2023-03-14T14:49:39;2.53;;;2.10;;
8889;SDS011;4481;43.406;24.454;2023-03-14T14:52:08;2.97;;;2.10;;
8889;SDS011;4481;43.406;24.454;2023-03-14T14:54:42;4.10;;;2.70;;
8889;SDS011;4481;43.406;24.454;2023-03-14T14:57:17;3.50;;;1.83;;
8889;SDS011;4481;43.406;24.454;2023-03-14T14:59:45;3.77;;;2.27;;
8889;SDS011;4481;43.406;24.454;2023-03-14T15:02:23;4.50;;;2.53;;
8889;SDS011;4481;43.406;24.454;2023-03-14T15:04:54;3.13;;;2.73;;
8889;SDS011;4481;43.406;24.454;2023-03-14T15:07:20;2.83;;;2.60;;
8889;SDS011;4481;43.406;24.454;2023-03-14T15:09:47;5.57;;;2.50;;
8889;SDS011;4481;43.406;24.454;2023-03-14T15:12:13;5.47;;;2.30;;
8889;SDS011;4481;43.406;24.454;2023-03-14T15:14:39;3.93;;;2.30;;